Time;durP1;ratioP1;P1;durP2;ratioP2;P2;SDS_P1;SDS_P2;PMS_P1;PMS_P2;Temp;Humidity;BMP_temperature;BMP_pressure;BME280_temperature;BME280_humidity;BME280_pressure;Samples;Min_cycle;Max_cycle;Signal;HPM_P1;HPM_P2
2022/01/10 00:00:33;;;;;;;;;;;;;;;;;;4968678;28;20027;-78
2022/01/10 00:02:59;;;;;;;5.97;2.85;;;;;;;;;;4968153;28;19916;-80
2022/01/10 00:05:24;;;;;;;5.28;2.92;;;;;;;;;;4966103;28;20289;-79
2022/01/10 00:07:49;;;;;;;4.50;2.60;;;;;;;;;;4965939;28;20113;-80
2022/01/10 00:10:15;;;;;;;4.80;3.50;;;;;;;;;;4965748;28;20094;-79
2022/01/10 00:12:40;;;;;;;5.07;2.95;;;;;;;;;;4969196;28;20035;-79
2022/01/10 00:15:06;;;;;;;5.25;3.00;;;;;;;;;;4969578;28;20050;-78
2022/01/10 00:17:32;;;;;;;5.60;2.72;;;;;;;;;;4965725;28;20106;-78
2022/01/10 00:19:57;;;;;;;4.72;2.70;;;;;;;;;;4970073;28;20471;-80
2022/01/10 00:22:23;;;;;;;7.00;3.22;;;;;;;;;;4964910;28;20467;-80
2022/01/10 00:24:49;;;;;;;7.63;3.22;;;;;;;;;;4964573;28;20034;-79
2022/01/10 00:27:14;;;;;;;6.22;3.60;;;;;;;;;;4963549;28;20031;-80
2022/01/10 00:29:39;;;;;;;5.55;3.05;;;;;;;;;;4969213;28;20054;-79
2022/01/10 00:32:05;;;;;;;5.35;3.03;;;;;;;;;;4965580;28;20539;-79
2022/01/10 00:34:30;;;;;;;5.65;3.00;;;;;;;;;;4968972;28;20048;-82
2022/01/10 00:36:55;;;;;;;4.05;2.80;;;;;;;;;;4966667;28;20459;-79
2022/01/10 00:39:20;;;;;;;5.45;3.10;;;;;;;;;;4969186;28;20034;-78
2022/01/10 00:41:46;;;;;;;7.15;3.60;;;;;;;;;;4963556;28;20038;-79
2022/01/10 00:44:14;;;;;;;6.10;3.40;;;;;;;;;;4969555;28;20133;-79
2022/01/10 00:46:39;;;;;;;6.82;3.55;;;;;;;;;;4964361;28;20019;-80
2022/01/10 00:49:05;;;;;;;6.45;3.58;;;;;;;;;;4966227;28;20045;-79
2022/01/10 00:51:30;;;;;;;6.20;3.90;;;;;;;;;;4969898;28;20026;-79
2022/01/10 00:53:55;;;;;;;6.15;3.50;;;;;;;;;;4969099;28;20031;-79
2022/01/10 00:56:20;;;;;;;6.78;3.67;;;;;;;;;;4969025;28;20077;-79
2022/01/10 00:58:46;;;;;;;7.32;3.50;;;;;;;;;;4968730;28;20343;-79
2022/01/10 01:01:12;;;;;;;8.35;3.47;;;;;;;;;;4967436;28;20074;-78
2022/01/10 01:03:37;;;;;;;5.75;3.33;;;;;;;;;;4965684;28;20533;-79
2022/01/10 01:06:02;;;;;;;5.60;3.28;;;;;;;;;;4960719;28;20121;-79
2022/01/10 01:08:29;;;;;;;6.50;3.22;;;;;;;;;;4965655;28;20027;-80
2022/01/10 01:13:50;;;;;;;7.57;3.60;;;;;;;;;;4969087;28;20093;-79
2022/01/10 01:16:19;;;;;;;5.97;3.38;;;;;;;;;;4968337;28;20082;-79
2022/01/10 01:24:11;;;;;;;5.47;3.00;;;;;;;;;;4963236;28;20422;-79
2022/01/10 01:26:40;;;;;;;6.65;3.17;;;;;;;;;;4968831;28;20501;-80
2022/01/10 01:29:07;;;;;;;7.88;3.65;;;;;;;;;;4948040;28;20050;-79
2022/01/10 01:31:33;;;;;;;6.43;3.72;;;;;;;;;;4950256;28;20791;-79
2022/01/10 01:33:58;;;;;;;6.53;3.80;;;;;;;;;;4971587;28;20082;-79
2022/01/10 01:36:25;;;;;;;6.07;3.80;;;;;;;;;;4966903;28;20461;-79
2022/01/10 01:38:51;;;;;;;5.95;3.58;;;;;;;;;;4963511;28;20026;-79
2022/01/10 01:41:25;;;;;;;6.07;3.92;;;;;;;;;;4969756;28;20110;-78
2022/01/10 01:43:51;;;;;;;5.35;3.35;;;;;;;;;;4964951;28;20023;-79
2022/01/10 01:46:16;;;;;;;6.43;3.55;;;;;;;;;;4971362;28;20641;-78
2022/01/10 01:48:42;;;;;;;7.63;3.78;;;;;;;;;;4969819;28;20118;-78
2022/01/10 01:51:07;;;;;;;6.97;3.80;;;;;;;;;;4965433;28;20114;-78
2022/01/10 01:53:32;;;;;;;6.82;3.83;;;;;;;;;;4970643;28;20419;-79
2022/01/10 01:55:58;;;;;;;6.20;3.90;;;;;;;;;;4953171;28;20026;-78
2022/01/10 01:58:23;;;;;;;7.53;3.95;;;;;;;;;;4970277;28;20035;-79
2022/01/10 02:00:49;;;;;;;8.15;3.83;;;;;;;;;;4970175;28;20057;-78
2022/01/10 02:03:14;;;;;;;7.38;4.45;;;;;;;;;;4970427;28;20079;-78
2022/01/10 02:05:39;;;;;;;8.05;3.95;;;;;;;;;;4968087;28;20030;-78
2022/01/10 02:08:04;;;;;;;8.73;3.92;;;;;;;;;;4967219;28;20062;-78
2022/01/10 02:10:29;;;;;;;5.28;3.45;;;;;;;;;;4970968;28;20106;-78
2022/01/10 02:12:55;;;;;;;6.47;3.60;;;;;;;;;;4971938;28;20023;-78
2022/01/10 02:15:26;;;;;;;8.65;3.92;;;;;;;;;;4970244;28;20506;-78
2022/01/10 02:17:55;;;;;;;7.38;3.75;;;;;;;;;;4969346;28;20138;-78
2022/01/10 02:20:20;;;;;;;7.63;3.90;;;;;;;;;;4966407;28;20031;-79
2022/01/10 02:22:45;;;;;;;7.82;3.90;;;;;;;;;;4970499;28;20098;-79
2022/01/10 02:25:10;;;;;;;6.22;3.63;;;;;;;;;;4967770;28;20024;-79
2022/01/10 02:27:36;;;;;;;7.35;3.83;;;;;;;;;;4967603;28;20046;-79
2022/01/10 02:30:01;;;;;;;6.95;3.83;;;;;;;;;;4970004;28;20114;-78
2022/01/10 02:32:26;;;;;;;6.35;3.55;;;;;;;;;;4969102;28;20095;-80
2022/01/10 02:34:51;;;;;;;6.55;3.33;;;;;;;;;;4964285;28;20027;-78
2022/01/10 02:37:33;;;;;;;6.90;3.80;;;;;;;;;;4967095;28;20442;-80
2022/01/10 02:40:01;;;;;;;7.50;3.90;;;;;;;;;;4966640;28;20433;-79
2022/01/10 02:42:27;;;;;;;7.07;3.63;;;;;;;;;;4965511;28;20034;-79
2022/01/10 02:44:52;;;;;;;6.03;3.78;;;;;;;;;;4969149;28;20053;-79
2022/01/10 02:47:17;;;;;;;5.43;3.35;;;;;;;;;;4968777;28;20446;-80
2022/01/10 02:49:42;;;;;;;6.38;3.50;;;;;;;;;;4969377;28;20035;-79
2022/01/10 02:52:07;;;;;;;7.05;3.70;;;;;;;;;;4974652;28;20029;-78
2022/01/10 02:54:32;;;;;;;7.05;4.20;;;;;;;;;;4969175;28;20682;-79
2022/01/10 02:56:58;;;;;;;7.43;3.53;;;;;;;;;;4963543;28;20077;-80
2022/01/10 02:59:24;;;;;;;5.47;3.60;;;;;;;;;;4968866;28;20015;-79
2022/01/10 03:01:50;;;;;;;8.02;4.50;;;;;;;;;;4970488;28;20498;-78
2022/01/10 03:04:15;;;;;;;6.88;4.00;;;;;;;;;;4970007;28;20072;-79
2022/01/10 03:06:41;;;;;;;6.80;4.00;;;;;;;;;;4970793;28;20058;-79
2022/01/10 03:09:06;;;;;;;6.22;4.18;;;;;;;;;;4967754;28;20050;-79
2022/01/10 03:11:32;;;;;;;7.63;4.30;;;;;;;;;;4967179;28;20077;-79
2022/01/10 03:13:58;;;;;;;8.10;4.03;;;;;;;;;;4970332;28;20027;-79
2022/01/10 03:16:24;;;;;;;6.30;4.22;;;;;;;;;;4967227;28;20062;-79
2022/01/10 03:18:49;;;;;;;7.32;4.43;;;;;;;;;;4969600;28;20031;-79
2022/01/10 03:21:16;;;;;;;6.80;3.80;;;;;;;;;;4967415;28;20111;-80
2022/01/10 03:23:41;;;;;;;8.18;4.43;;;;;;;;;;4967835;28;20031;-77
2022/01/10 03:26:07;;;;;;;7.28;4.50;;;;;;;;;;4968745;28;20034;-79
2022/01/10 03:28:32;;;;;;;8.63;4.97;;;;;;;;;;4963964;28;20370;-79
2022/01/10 03:30:57;;;;;;;7.22;3.97;;;;;;;;;;4967777;28;20057;-78
2022/01/10 03:33:22;;;;;;;8.35;5.00;;;;;;;;;;4966291;28;20433;-79
2022/01/10 03:35:47;;;;;;;7.72;4.25;;;;;;;;;;4967871;28;20019;-79
2022/01/10 03:38:13;;;;;;;6.32;4.20;;;;;;;;;;4969860;28;20113;-79
2022/01/10 03:40:38;;;;;;;7.40;3.78;;;;;;;;;;4966636;28;20026;-78
2022/01/10 03:43:04;;;;;;;7.88;4.50;;;;;;;;;;4958322;28;20586;-78
2022/01/10 03:45:29;;;;;;;11.10;4.35;;;;;;;;;;4965515;28;20042;-79
2022/01/10 03:47:55;;;;;;;6.40;4.20;;;;;;;;;;4968817;28;20098;-80
2022/01/10 03:50:20;;;;;;;8.20;4.70;;;;;;;;;;4971912;28;20123;-79
2022/01/10 03:52:46;;;;;;;12.85;4.72;;;;;;;;;;4969624;28;20398;-78
2022/01/10 03:55:12;;;;;;;7.70;3.83;;;;;;;;;;4968947;28;20046;-80
2022/01/10 03:57:37;;;;;;;5.95;3.85;;;;;;;;;;4968762;28;20069;-79
2022/01/10 04:00:04;;;;;;;8.77;5.05;;;;;;;;;;4965578;28;20031;-80
2022/01/10 04:02:31;;;;;;;9.57;4.72;;;;;;;;;;4963409;28;20057;-78
2022/01/10 04:04:56;;;;;;;10.07;4.85;;;;;;;;;;4967604;28;20032;-79
2022/01/10 04:07:21;;;;;;;5.95;4.13;;;;;;;;;;4969756;28;20034;-79
2022/01/10 04:09:47;;;;;;;7.53;4.50;;;;;;;;;;4967600;28;20495;-78
2022/01/10 04:12:12;;;;;;;6.85;4.70;;;;;;;;;;4968950;28;20085;-79
2022/01/10 04:14:38;;;;;;;8.98;4.82;;;;;;;;;;4969311;28;20486;-79
2022/01/10 04:17:03;;;;;;;9.73;4.85;;;;;;;;;;4967549;28;20054;-79
2022/01/10 04:19:28;;;;;;;8.07;4.97;;;;;;;;;;4968812;28;20479;-79
2022/01/10 04:21:53;;;;;;;7.75;4.28;;;;;;;;;;4967917;28;20034;-80
2022/01/10 04:24:18;;;;;;;8.52;4.45;;;;;;;;;;4968363;28;20058;-79
2022/01/10 04:26:44;;;;;;;9.60;4.63;;;;;;;;;;4969460;28;20469;-79
2022/01/10 04:29:09;;;;;;;7.63;4.80;;;;;;;;;;4968122;28;20046;-80
2022/01/10 04:31:34;;;;;;;8.88;5.10;;;;;;;;;;4964949;28;20019;-78
2022/01/10 04:33:59;;;;;;;8.23;4.75;;;;;;;;;;4966832;28;20031;-80
2022/01/10 04:36:24;;;;;;;8.27;5.55;;;;;;;;;;4969215;28;20106;-79
2022/01/10 04:38:50;;;;;;;10.40;5.15;;;;;;;;;;4968391;28;20031;-80
2022/01/10 04:41:15;;;;;;;9.07;5.22;;;;;;;;;;4966348;28;20479;-80
2022/01/10 04:43:40;;;;;;;9.45;5.35;;;;;;;;;;4968673;28;20870;-79
2022/01/10 04:46:05;;;;;;;11.40;5.55;;;;;;;;;;4969877;28;20023;-79
2022/01/10 04:48:30;;;;;;;12.77;6.43;;;;;;;;;;4965962;28;20046;-80
2022/01/10 04:51:11;;;;;;;13.32;5.78;;;;;;;;;;4970370;28;20023;-79
2022/01/10 04:53:38;;;;;;;11.18;5.65;;;;;;;;;;4966902;28;20023;-80
2022/01/10 04:56:03;;;;;;;10.68;5.50;;;;;;;;;;4967073;28;20490;-79
2022/01/10 04:58:28;;;;;;;9.05;5.53;;;;;;;;;;4968493;28;20105;-79
2022/01/10 05:00:55;;;;;;;8.45;5.43;;;;;;;;;;4966943;28;20081;-79
2022/01/10 05:03:20;;;;;;;11.20;6.13;;;;;;;;;;4968512;28;20037;-79
2022/01/10 05:05:46;;;;;;;11.30;5.97;;;;;;;;;;4971325;28;20018;-79
2022/01/10 05:08:12;;;;;;;12.60;6.13;;;;;;;;;;4971380;28;20034;-84
2022/01/10 05:10:37;;;;;;;11.55;5.65;;;;;;;;;;4972360;28;20030;-79
2022/01/10 05:13:02;;;;;;;10.27;5.43;;;;;;;;;;4961884;28;20062;-78
2022/01/10 05:15:27;;;;;;;8.80;5.88;;;;;;;;;;4971106;28;20050;-79
2022/01/10 05:17:52;;;;;;;12.63;6.20;;;;;;;;;;4968369;28;20027;-78
2022/01/10 05:20:18;;;;;;;11.70;6.18;;;;;;;;;;4969373;28;20565;-79
2022/01/10 05:22:43;;;;;;;10.90;6.07;;;;;;;;;;4966510;28;20038;-79
2022/01/10 05:25:08;;;;;;;12.23;6.60;;;;;;;;;;4969478;28;20054;-78
2022/01/10 05:27:33;;;;;;;11.73;6.03;;;;;;;;;;4970695;28;20085;-78
2022/01/10 05:29:59;;;;;;;11.23;7.03;;;;;;;;;;4972433;28;20504;-79
2022/01/10 05:32:24;;;;;;;11.70;6.32;;;;;;;;;;4969473;28;20561;-79
2022/01/10 05:34:49;;;;;;;12.40;6.97;;;;;;;;;;4969565;28;20099;-80
2022/01/10 05:37:14;;;;;;;12.80;7.32;;;;;;;;;;4968116;28;20086;-78
2022/01/10 05:39:39;;;;;;;12.57;7.00;;;;;;;;;;4972022;28;20415;-78
2022/01/10 05:42:05;;;;;;;10.55;6.95;;;;;;;;;;4967136;28;20026;-78
2022/01/10 05:44:30;;;;;;;12.45;7.28;;;;;;;;;;4972971;28;20023;-77
2022/01/10 05:46:56;;;;;;;12.43;7.25;;;;;;;;;;4979238;28;20023;-76
2022/01/10 05:49:26;;;;;;;13.90;7.78;;;;;;;;;;4981882;28;20125;-79
2022/01/10 05:51:52;;;;;;;13.82;7.85;;;;;;;;;;4976078;28;20131;-76
2022/01/10 05:54:17;;;;;;;14.48;8.27;;;;;;;;;;4974742;28;20084;-76
2022/01/10 05:56:42;;;;;;;15.38;8.80;;;;;;;;;;4968111;28;20089;-68
2022/01/10 05:59:07;;;;;;;13.63;8.70;;;;;;;;;;4971260;28;20390;-68
2022/01/10 06:01:32;;;;;;;12.38;8.15;;;;;;;;;;4969426;28;20023;-68
2022/01/10 06:03:58;;;;;;;12.75;7.72;;;;;;;;;;4969340;28;20201;-67
2022/01/10 06:06:23;;;;;;;13.68;8.55;;;;;;;;;;4969933;28;20049;-68
2022/01/10 06:08:48;;;;;;;18.25;9.00;;;;;;;;;;4971755;28;20406;-67
2022/01/10 06:11:14;;;;;;;14.02;7.95;;;;;;;;;;4971819;28;20150;-68
2022/01/10 06:13:39;;;;;;;18.20;9.88;;;;;;;;;;4952284;28;20058;-66
2022/01/10 06:16:05;;;;;;;15.68;9.52;;;;;;;;;;4969559;28;20054;-66
2022/01/10 06:18:30;;;;;;;19.20;10.48;;;;;;;;;;4969926;28;20030;-66
2022/01/10 06:20:55;;;;;;;21.25;10.60;;;;;;;;;;4969852;28;20018;-69
2022/01/10 06:23:21;;;;;;;18.05;10.50;;;;;;;;;;4971075;28;20023;-67
2022/01/10 06:25:46;;;;;;;18.00;10.98;;;;;;;;;;4959945;28;20102;-68
2022/01/10 06:28:11;;;;;;;16.85;10.30;;;;;;;;;;4967298;28;20042;-69
2022/01/10 06:30:36;;;;;;;18.38;10.75;;;;;;;;;;4964454;28;20038;-68
2022/01/10 06:33:02;;;;;;;18.17;10.55;;;;;;;;;;4966080;28;20105;-68
2022/01/10 06:35:27;;;;;;;17.75;10.65;;;;;;;;;;4970739;28;20485;-69
2022/01/10 06:37:52;;;;;;;18.42;10.85;;;;;;;;;;4967553;28;20030;-69
2022/01/10 06:40:18;;;;;;;18.05;11.38;;;;;;;;;;4971259;28;20089;-69
2022/01/10 06:42:43;;;;;;;21.35;12.00;;;;;;;;;;4971467;28;20053;-68
2022/01/10 06:45:09;;;;;;;21.55;10.20;;;;;;;;;;4970963;28;20063;-68
2022/01/10 06:47:34;;;;;;;16.77;10.70;;;;;;;;;;4968572;28;20105;-68
2022/01/10 06:50:00;;;;;;;18.00;11.52;;;;;;;;;;4966611;28;20086;-67
2022/01/10 06:52:25;;;;;;;19.13;11.50;;;;;;;;;;4970619;28;20615;-68
2022/01/10 06:54:50;;;;;;;19.58;10.75;;;;;;;;;;4968612;28;20027;-69
2022/01/10 06:57:15;;;;;;;21.77;11.90;;;;;;;;;;4970643;28;20033;-68
2022/01/10 06:59:40;;;;;;;21.33;11.18;;;;;;;;;;4970243;28;20442;-68
2022/01/10 07:02:06;;;;;;;18.23;11.05;;;;;;;;;;4971475;28;20065;-68
2022/01/10 07:04:32;;;;;;;17.17;10.98;;;;;;;;;;4970367;28;20125;-68
2022/01/10 07:06:57;;;;;;;18.92;10.90;;;;;;;;;;4970803;28;20074;-69
2022/01/10 07:09:22;;;;;;;18.48;11.23;;;;;;;;;;4967235;28;20458;-68
2022/01/10 07:11:48;;;;;;;19.95;12.10;;;;;;;;;;4969533;28;20097;-68
2022/01/10 07:14:14;;;;;;;22.38;11.82;;;;;;;;;;4970133;28;20548;-69
2022/01/10 07:16:40;;;;;;;21.27;11.90;;;;;;;;;;4970633;28;20043;-68
2022/01/10 07:19:06;;;;;;;22.23;11.85;;;;;;;;;;4969787;28;20026;-67
2022/01/10 07:21:33;;;;;;;20.13;11.43;;;;;;;;;;4962425;28;20487;-69
2022/01/10 07:23:58;;;;;;;18.55;11.43;;;;;;;;;;4968116;28;20122;-69
2022/01/10 07:26:24;;;;;;;19.65;11.10;;;;;;;;;;4969791;28;20035;-68
2022/01/10 07:28:49;;;;;;;20.40;12.10;;;;;;;;;;4970357;28;20623;-70
2022/01/10 07:31:14;;;;;;;21.23;12.02;;;;;;;;;;4969751;28;20110;-69
2022/01/10 07:33:39;;;;;;;21.35;11.52;;;;;;;;;;4970515;28;20435;-68
2022/01/10 07:36:05;;;;;;;23.77;13.13;;;;;;;;;;4970417;28;20023;-68
2022/01/10 07:38:35;;;;;;;20.13;12.10;;;;;;;;;;4970294;28;20379;-68
2022/01/10 07:41:00;;;;;;;20.45;13.02;;;;;;;;;;4969993;28;20097;-70
2022/01/10 07:43:26;;;;;;;22.02;13.15;;;;;;;;;;4969905;28;20102;-69
2022/01/10 07:45:51;;;;;;;21.55;12.30;;;;;;;;;;4970446;28;20093;-69
2022/01/10 07:48:17;;;;;;;24.25;13.75;;;;;;;;;;4969747;28;20057;-69
2022/01/10 07:50:42;;;;;;;25.88;13.23;;;;;;;;;;4970334;28;20049;-69
2022/01/10 07:53:07;;;;;;;28.98;14.50;;;;;;;;;;4968367;28;20095;-70
2022/01/10 07:55:33;;;;;;;24.45;13.52;;;;;;;;;;4970294;28;20038;-68
2022/01/10 07:57:58;;;;;;;24.83;13.82;;;;;;;;;;4969920;28;20375;-68
2022/01/10 08:00:23;;;;;;;22.05;12.60;;;;;;;;;;4969687;28;20066;-69
2022/01/10 08:02:48;;;;;;;28.38;14.45;;;;;;;;;;4969356;28;20014;-68
2022/01/10 08:05:14;;;;;;;21.52;13.35;;;;;;;;;;4969996;28;20039;-70
2022/01/10 08:07:39;;;;;;;21.23;12.75;;;;;;;;;;4969955;28;20600;-69
2022/01/10 08:10:04;;;;;;;25.98;14.45;;;;;;;;;;4970167;28;20034;-70
2022/01/10 08:12:30;;;;;;;26.60;14.80;;;;;;;;;;4969198;28;20397;-70
2022/01/10 08:14:55;;;;;;;29.85;14.95;;;;;;;;;;4968476;28;20051;-71
2022/01/10 08:17:20;;;;;;;26.70;14.35;;;;;;;;;;4969839;28;20035;-69
2022/01/10 08:19:45;;;;;;;29.60;14.75;;;;;;;;;;4969721;28;20042;-70
2022/01/10 08:22:11;;;;;;;28.45;15.32;;;;;;;;;;4973383;28;20026;-70
2022/01/10 08:24:36;;;;;;;31.98;15.05;;;;;;;;;;4969253;28;20027;-70
2022/01/10 08:27:01;;;;;;;25.92;13.88;;;;;;;;;;4969769;28;20027;-69
2022/01/10 08:29:27;;;;;;;27.63;14.70;;;;;;;;;;4969174;28;20027;-71
2022/01/10 08:31:52;;;;;;;25.58;14.48;;;;;;;;;;4969848;28;20022;-70
2022/01/10 08:34:19;;;;;;;28.20;14.48;;;;;;;;;;4968542;28;20023;-69
2022/01/10 08:36:44;;;;;;;26.50;14.23;;;;;;;;;;4969754;28;20049;-68
2022/01/10 08:39:10;;;;;;;27.30;14.10;;;;;;;;;;4969543;28;20023;-68
2022/01/10 08:41:35;;;;;;;29.80;15.18;;;;;;;;;;4972772;28;20019;-69
2022/01/10 08:44:01;;;;;;;35.90;16.60;;;;;;;;;;4967214;28;20117;-69
2022/01/10 08:46:26;;;;;;;29.90;15.20;;;;;;;;;;4971132;28;20493;-70
2022/01/10 08:48:52;;;;;;;26.42;14.95;;;;;;;;;;4973304;28;20038;-69
2022/01/10 08:51:17;;;;;;;31.35;15.30;;;;;;;;;;4973086;28;20023;-69
2022/01/10 08:53:43;;;;;;;32.20;16.52;;;;;;;;;;4973320;28;20110;-69
2022/01/10 08:56:08;;;;;;;28.48;15.55;;;;;;;;;;4972605;28;20026;-69
2022/01/10 08:58:33;;;;;;;33.75;15.55;;;;;;;;;;4973172;28;20022;-69
2022/01/10 09:00:59;;;;;;;28.05;15.40;;;;;;;;;;4972852;28;20019;-69
2022/01/10 09:03:25;;;;;;;30.02;15.10;;;;;;;;;;4973445;28;20038;-69
2022/01/10 09:05:50;;;;;;;27.55;15.25;;;;;;;;;;4972907;28;20512;-68
2022/01/10 09:08:15;;;;;;;32.90;16.25;;;;;;;;;;4973005;28;20078;-70
2022/01/10 09:10:41;;;;;;;29.42;15.55;;;;;;;;;;4972965;28;20455;-69
2022/01/10 09:13:07;;;;;;;30.00;14.43;;;;;;;;;;4973154;28;20065;-69
2022/01/10 09:15:32;;;;;;;29.77;16.05;;;;;;;;;;4972726;28;20046;-70
2022/01/10 09:17:58;;;;;;;28.33;14.88;;;;;;;;;;4973102;28;20379;-69
2022/01/10 09:20:23;;;;;;;26.27;14.57;;;;;;;;;;4976757;28;20027;-70
2022/01/10 09:22:48;;;;;;;27.70;14.80;;;;;;;;;;4965137;28;20034;-70
2022/01/10 09:25:13;;;;;;;29.23;15.38;;;;;;;;;;4972357;28;20027;-69
2022/01/10 09:27:39;;;;;;;26.45;14.48;;;;;;;;;;4972828;28;20039;-69
2022/01/10 09:30:05;;;;;;;24.92;13.52;;;;;;;;;;4972558;28;20022;-69
2022/01/10 09:32:30;;;;;;;23.77;12.63;;;;;;;;;;4972178;28;20110;-68
2022/01/10 09:34:55;;;;;;;25.83;12.85;;;;;;;;;;4972448;28;20029;-69
2022/01/10 09:37:21;;;;;;;23.98;11.85;;;;;;;;;;4972613;28;20023;-69
2022/01/10 09:39:47;;;;;;;27.23;12.75;;;;;;;;;;4972218;28;20074;-68
2022/01/10 09:42:12;;;;;;;25.88;12.88;;;;;;;;;;4972013;28;20023;-70
2022/01/10 09:44:38;;;;;;;27.10;13.23;;;;;;;;;;4972174;28;20034;-70
2022/01/10 09:47:03;;;;;;;26.33;13.27;;;;;;;;;;4972613;28;20035;-69
2022/01/10 09:49:29;;;;;;;25.17;12.75;;;;;;;;;;4972301;28;20130;-69
2022/01/10 09:51:54;;;;;;;25.95;13.75;;;;;;;;;;4971789;28;20061;-69
2022/01/10 09:54:19;;;;;;;24.20;12.85;;;;;;;;;;4972343;28;20046;-69
2022/01/10 09:56:47;;;;;;;25.98;13.80;;;;;;;;;;4972282;28;20019;-70
2022/01/10 09:59:13;;;;;;;26.08;13.38;;;;;;;;;;4972149;28;20110;-70
2022/01/10 10:01:38;;;;;;;25.75;13.48;;;;;;;;;;4971715;28;20093;-69
2022/01/10 10:04:03;;;;;;;25.52;11.75;;;;;;;;;;4972677;28;20077;-68
2022/01/10 10:06:29;;;;;;;27.65;14.05;;;;;;;;;;4969829;28;20042;-69
2022/01/10 10:08:59;;;;;;;28.40;15.20;;;;;;;;;;4972192;28;20039;-69
2022/01/10 10:11:34;;;;;;;26.02;14.00;;;;;;;;;;4971755;28;20133;-69
2022/01/10 10:14:03;;;;;;;28.35;13.80;;;;;;;;;;4972447;28;20101;-69
2022/01/10 10:16:29;;;;;;;27.52;13.68;;;;;;;;;;4954086;28;20376;-68
2022/01/10 10:18:55;;;;;;;26.35;13.98;;;;;;;;;;4971934;28;20081;-69
2022/01/10 10:21:20;;;;;;;23.35;12.27;;;;;;;;;;4971735;28;20030;-69
2022/01/10 10:23:48;;;;;;;22.00;11.73;;;;;;;;;;4971481;28;20410;-69
2022/01/10 10:26:17;;;;;;;22.67;11.65;;;;;;;;;;4971864;28;20074;-69
2022/01/10 10:28:44;;;;;;;22.48;12.30;;;;;;;;;;4971765;28;20057;-69
2022/01/10 10:31:09;;;;;;;26.58;12.88;;;;;;;;;;4971150;28;20069;-68
2022/01/10 10:33:34;;;;;;;22.40;12.70;;;;;;;;;;4971421;28;20050;-69
2022/01/10 10:36:08;;;;;;;21.08;12.27;;;;;;;;;;4971658;28;20058;-71
2022/01/10 10:38:33;;;;;;;22.52;12.00;;;;;;;;;;4971796;28;20414;-69
2022/01/10 10:41:03;;;;;;;22.90;11.38;;;;;;;;;;4971603;28;20102;-68
2022/01/10 10:43:30;;;;;;;21.48;10.77;;;;;;;;;;4970993;28;20069;-68
2022/01/10 10:45:58;;;;;;;19.02;11.23;;;;;;;;;;4971160;28;20050;-68
2022/01/10 10:48:24;;;;;;;21.73;12.07;;;;;;;;;;4971224;28;20077;-69
2022/01/10 10:50:49;;;;;;;22.70;12.57;;;;;;;;;;4971334;28;20054;-69
2022/01/10 10:53:14;;;;;;;25.45;11.48;;;;;;;;;;4970565;28;20389;-67
2022/01/10 10:55:41;;;;;;;23.08;10.55;;;;;;;;;;4971037;28;20065;-68
2022/01/10 10:58:09;;;;;;;20.02;11.45;;;;;;;;;;4953323;28;20061;-68
2022/01/10 11:00:35;;;;;;;22.90;11.30;;;;;;;;;;4970970;28;20085;-69
2022/01/10 11:03:00;;;;;;;24.38;13.02;;;;;;;;;;4970335;28;20039;-69
2022/01/10 11:05:26;;;;;;;25.27;12.27;;;;;;;;;;4971146;28;20027;-68
2022/01/10 11:07:51;;;;;;;24.15;12.02;;;;;;;;;;4970837;28;20688;-70
2022/01/10 11:10:16;;;;;;;20.17;11.50;;;;;;;;;;4970917;28;20035;-69
2022/01/10 11:12:44;;;;;;;24.38;13.25;;;;;;;;;;4970739;28;20471;-68
2022/01/10 11:15:10;;;;;;;24.33;13.57;;;;;;;;;;4970092;28;20051;-68
2022/01/10 11:17:39;;;;;;;25.30;13.60;;;;;;;;;;4970717;28;20042;-68
2022/01/10 11:20:08;;;;;;;31.25;15.80;;;;;;;;;;4953054;28;20038;-68
2022/01/10 11:22:33;;;;;;;28.42;15.10;;;;;;;;;;4970748;28;20034;-68
2022/01/10 11:24:58;;;;;;;25.50;14.02;;;;;;;;;;4970348;28;20475;-68
2022/01/10 11:27:31;;;;;;;30.23;15.38;;;;;;;;;;4970264;28;20030;-68
2022/01/10 11:29:57;;;;;;;26.58;14.85;;;;;;;;;;4970664;28;20394;-69
2022/01/10 11:32:41;;;;;;;27.77;14.85;;;;;;;;;;4970552;28;20019;-68
2022/01/10 11:35:07;;;;;;;27.02;15.13;;;;;;;;;;4942597;28;20889;-69
2022/01/10 11:37:32;;;;;;;28.45;16.17;;;;;;;;;;4970630;28;20033;-69
2022/01/10 11:39:57;;;;;;;30.00;16.02;;;;;;;;;;4970160;28;20031;-68
2022/01/10 11:42:23;;;;;;;29.70;15.90;;;;;;;;;;4970405;28;20416;-69
2022/01/10 11:45:07;;;;;;;29.60;16.83;;;;;;;;;;4970021;28;20026;-69
2022/01/10 11:47:52;;;;;;;30.33;15.73;;;;;;;;;;4962300;28;20027;-69
2022/01/10 11:50:25;;;;;;;30.27;16.30;;;;;;;;;;4968426;28;20038;-69
2022/01/10 11:52:56;;;;;;;27.27;14.52;;;;;;;;;;4965592;28;20026;-69
2022/01/10 11:55:54;;;;;;;23.98;14.10;;;;;;;;;;4962141;28;20027;-69
2022/01/10 11:58:21;;;;;;;29.50;15.80;;;;;;;;;;4871795;29;20189;-70
2022/01/10 12:00:46;;;;;;;28.27;14.77;;;;;;;;;;4871994;29;20025;-69
2022/01/10 12:03:12;;;;;;;32.03;15.35;;;;;;;;;;4871365;29;20040;-69
2022/01/10 12:05:39;;;;;;;28.40;15.00;;;;;;;;;;4871907;29;20024;-70
2022/01/10 12:08:04;;;;;;;28.10;15.23;;;;;;;;;;4871743;29;20116;-71
2022/01/10 12:10:30;;;;;;;27.40;14.38;;;;;;;;;;4871922;29;20021;-69
2022/01/10 12:13:09;;;;;;;28.08;14.50;;;;;;;;;;4871791;29;20060;-68
2022/01/10 12:15:35;;;;;;;25.45;14.15;;;;;;;;;;4871926;29;20060;-69
2022/01/10 12:18:00;;;;;;;23.27;13.18;;;;;;;;;;4872262;29;20029;-68
2022/01/10 12:20:26;;;;;;;21.45;12.52;;;;;;;;;;4874602;29;20040;-69
2022/01/10 12:22:54;;;;;;;24.73;13.57;;;;;;;;;;4872295;29;20036;-70
2022/01/10 12:25:20;;;;;;;21.42;13.52;;;;;;;;;;4872042;29;20029;-69
2022/01/10 12:27:45;;;;;;;25.33;13.30;;;;;;;;;;4871808;29;20138;-69
2022/01/10 12:30:11;;;;;;;22.70;12.63;;;;;;;;;;4870321;29;20429;-69
2022/01/10 12:32:38;;;;;;;22.63;12.50;;;;;;;;;;4873026;29;20032;-69
2022/01/10 12:35:04;;;;;;;23.95;13.93;;;;;;;;;;4962582;28;20035;-69
2022/01/10 12:37:29;;;;;;;25.17;14.27;;;;;;;;;;4969600;28;20023;-69
2022/01/10 12:39:55;;;;;;;27.30;14.68;;;;;;;;;;4969716;28;20422;-70
2022/01/10 12:42:24;;;;;;;25.17;13.50;;;;;;;;;;4969696;28;20027;-69
2022/01/10 12:44:50;;;;;;;27.67;14.27;;;;;;;;;;4963486;28;20535;-69
2022/01/10 12:47:16;;;;;;;26.65;14.57;;;;;;;;;;4969584;28;20106;-70
2022/01/10 12:49:44;;;;;;;24.80;13.77;;;;;;;;;;4969738;28;20118;-70
2022/01/10 12:52:10;;;;;;;21.88;12.57;;;;;;;;;;4962854;28;20049;-69
2022/01/10 12:54:35;;;;;;;24.42;13.27;;;;;;;;;;4969316;28;20022;-69
2022/01/10 12:57:00;;;;;;;23.83;13.43;;;;;;;;;;4969184;28;20019;-69
2022/01/10 12:59:27;;;;;;;25.88;13.15;;;;;;;;;;4969499;28;20057;-69
2022/01/10 13:01:52;;;;;;;24.02;14.05;;;;;;;;;;4967793;28;20027;-71
2022/01/10 13:04:41;;;;;;;25.02;13.70;;;;;;;;;;4969702;28;20027;-70
2022/01/10 13:07:10;;;;;;;28.58;13.93;;;;;;;;;;4904422;29;20476;-71
2022/01/10 13:09:37;;;;;;;23.90;12.50;;;;;;;;;;4909347;29;20048;-69
2022/01/10 13:12:23;;;;;;;20.92;12.40;;;;;;;;;;4909151;29;20040;-69
2022/01/10 13:14:48;;;;;;;20.13;11.55;;;;;;;;;;4909654;29;20066;-70
2022/01/10 13:17:13;;;;;;;20.95;12.27;;;;;;;;;;4909070;29;20028;-69
2022/01/10 13:19:40;;;;;;;24.38;12.75;;;;;;;;;;4909405;29;20070;-69
2022/01/10 13:22:09;;;;;;;23.50;12.05;;;;;;;;;;4909346;29;20035;-70
2022/01/10 13:24:44;;;;;;;20.88;11.90;;;;;;;;;;4909110;29;20044;-70
2022/01/10 13:27:17;;;;;;;23.02;11.93;;;;;;;;;;4911126;29;20123;-70
2022/01/10 13:29:43;;;;;;;18.92;11.68;;;;;;;;;;4912468;29;20571;-70
2022/01/10 13:32:13;;;;;;;23.80;13.00;;;;;;;;;;4912390;29;20048;-69
2022/01/10 13:34:38;;;;;;;19.70;11.77;;;;;;;;;;4909319;29;20032;-68
2022/01/10 13:37:03;;;;;;;21.80;12.25;;;;;;;;;;4912289;29;20389;-69
2022/01/10 13:39:29;;;;;;;22.48;12.57;;;;;;;;;;4912280;29;20155;-69
2022/01/10 13:41:58;;;;;;;20.70;11.77;;;;;;;;;;4912524;29;20020;-70
2022/01/10 13:44:24;;;;;;;23.80;11.65;;;;;;;;;;4948916;28;20038;-71
2022/01/10 13:46:58;;;;;;;27.83;13.93;;;;;;;;;;4972485;28;20049;-71
2022/01/10 13:49:27;;;;;;;23.17;12.38;;;;;;;;;;4972378;28;20031;-69
2022/01/10 13:52:12;;;;;;;22.67;12.27;;;;;;;;;;4972103;28;20027;-70
2022/01/10 13:54:38;;;;;;;25.33;13.07;;;;;;;;;;4965840;28;20026;-68
2022/01/10 13:57:18;;;;;;;27.85;13.70;;;;;;;;;;4972519;28;20030;-70
2022/01/10 13:59:44;;;;;;;25.25;13.95;;;;;;;;;;4967344;28;20019;-69
2022/01/10 14:02:09;;;;;;;24.27;13.48;;;;;;;;;;4971786;28;20030;-70
2022/01/10 14:04:35;;;;;;;27.15;13.55;;;;;;;;;;4972166;28;20026;-69
2022/01/10 14:07:05;;;;;;;27.80;14.52;;;;;;;;;;4972382;28;20037;-70
2022/01/10 14:09:32;;;;;;;28.13;14.20;;;;;;;;;;4971991;28;20039;-69
2022/01/10 14:11:57;;;;;;;29.60;13.43;;;;;;;;;;4972314;28;20087;-70
2022/01/10 14:14:26;;;;;;;27.50;14.10;;;;;;;;;;4971639;28;20382;-70
2022/01/10 14:16:55;;;;;;;27.40;13.35;;;;;;;;;;4971840;28;20470;-69
2022/01/10 14:19:21;;;;;;;22.98;12.98;;;;;;;;;;4972247;28;20097;-69
2022/01/10 14:21:46;;;;;;;25.17;13.15;;;;;;;;;;4975610;28;20029;-70
2022/01/10 14:24:12;;;;;;;29.23;13.85;;;;;;;;;;4971382;28;20023;-69
2022/01/10 14:26:37;;;;;;;23.55;12.60;;;;;;;;;;4971675;28;20041;-69
2022/01/10 14:29:03;;;;;;;20.42;11.23;;;;;;;;;;4971273;28;20506;-68